createdAt,value
2018-08-13T00:00:24.336Z,0
2018-08-13T00:01:24.598Z,0
2018-08-13T00:02:24.588Z,0
2018-08-13T00:03:24.037Z,0
2018-08-13T00:04:24.823Z,0
2018-08-13T00:05:24.017Z,0
2018-08-13T00:06:24.009Z,0
2018-08-13T00:07:23.994Z,0
2018-08-13T00:08:24.509Z,0
2018-08-13T00:09:24.245Z,0
2018-08-13T00:10:24.240Z,0
2018-08-13T00:11:24.747Z,0
2018-08-13T00:12:24.210Z,0
2018-08-13T00:13:23.941Z,0
2018-08-13T00:14:24.726Z,0
2018-08-13T00:15:24.709Z,0
2018-08-13T00:16:24.165Z,0
2018-08-13T00:17:24.416Z,0
2018-08-13T00:18:24.139Z,0
2018-08-13T00:19:24.401Z,0
2018-08-13T00:20:24.129Z,0
2018-08-13T00:21:24.642Z,0
2018-08-13T00:22:24.630Z,0
2018-08-13T00:23:24.088Z,0
2018-08-13T00:24:23.817Z,0
2018-08-13T00:25:23.808Z,0
2018-08-13T00:26:24.061Z,0
2018-08-13T00:27:24.052Z,0
2018-08-13T00:28:24.571Z,0
2018-08-13T00:29:24.024Z,0
2018-08-13T00:30:24.281Z,0
2018-08-13T00:31:24.273Z,0
2018-08-13T00:32:23.993Z,0
2018-08-13T00:33:23.719Z,0
2018-08-13T00:34:23.704Z,0
2018-08-13T00:35:23.441Z,0
2018-08-13T00:36:23.961Z,0
2018-08-13T00:37:23.678Z,0
2018-08-13T00:38:24.457Z,0
2018-08-13T00:39:24.392Z,0
2018-08-13T00:40:24.173Z,0
2018-08-13T00:41:23.898Z,0
2018-08-13T00:42:24.417Z,0
2018-08-13T00:43:23.880Z,0
2018-08-13T00:44:23.605Z,0
2018-08-13T00:45:23.584Z,0
2018-08-13T00:46:23.837Z,0
2018-08-13T00:47:23.576Z,0
2018-08-13T00:48:24.091Z,0
2018-08-13T00:49:23.545Z,0
2018-08-13T00:50:23.813Z,0
2018-08-13T00:51:24.055Z,0
2018-08-13T00:52:24.045Z,0
2018-08-13T00:53:23.769Z,0
2018-08-13T00:54:23.758Z,0
2018-08-13T00:55:24.024Z,0
2018-08-13T00:56:23.732Z,0
2018-08-13T00:57:24.256Z,0
2018-08-13T00:58:23.978Z,0
2018-08-13T00:59:23.755Z,0
2018-08-13T01:00:23.431Z,0
2018-08-13T01:01:23.951Z,0
2018-08-13T01:02:23.689Z,0
2018-08-13T01:03:24.235Z,0
2018-08-13T01:04:23.919Z,0
2018-08-13T01:05:23.378Z,0
2018-08-13T01:06:23.630Z,0
2018-08-13T01:07:23.618Z,0
2018-08-13T01:08:23.918Z,0
2018-08-13T01:09:23.869Z,0
2018-08-13T01:10:23.324Z,0
2018-08-13T01:11:23.576Z,0
2018-08-13T01:12:24.082Z,0
2018-08-13T01:13:23.823Z,0
2018-08-13T01:14:23.272Z,0
2018-08-13T01:15:23.800Z,0
2018-08-13T01:16:24.049Z,0
2018-08-13T01:17:23.773Z,0
2018-08-13T01:18:23.766Z,0
2018-08-13T01:19:23.505Z,0
2018-08-13T01:20:24.034Z,0
2018-08-13T01:21:23.736Z,0
2018-08-13T01:22:23.997Z,0
2018-08-13T01:23:23.714Z,0
2018-08-13T01:24:23.707Z,0
2018-08-13T01:25:23.699Z,0
2018-08-13T01:26:23.686Z,0
2018-08-13T01:27:23.405Z,0
2018-08-13T01:28:23.657Z,0
2018-08-13T01:29:23.657Z,0
2018-08-13T01:30:23.379Z,0
2018-08-13T01:31:23.105Z,0
2018-08-13T01:32:23.353Z,0
2018-08-13T01:33:22.822Z,0
2018-08-13T01:34:23.065Z,0
2018-08-13T01:35:23.067Z,0
2018-08-13T01:36:23.058Z,0
2018-08-13T01:37:23.566Z,0
2018-08-13T01:38:23.299Z,0
2018-08-13T01:39:23.543Z,0
2018-08-13T01:40:23.268Z,0
2018-08-13T01:41:23.260Z,0
2018-08-13T01:42:23.510Z,0
2018-08-13T01:43:22.976Z,0
2018-08-13T01:44:23.241Z,0
2018-08-13T01:45:23.750Z,0
2018-08-13T01:46:23.219Z,0
2018-08-13T01:47:23.197Z,0
2018-08-13T01:48:22.918Z,0
2018-08-13T01:49:22.915Z,0
2018-08-13T01:50:23.174Z,0
2018-08-13T01:51:23.156Z,0
2018-08-13T01:52:22.885Z,0
2018-08-13T01:53:23.144Z,0
2018-08-13T01:54:22.606Z,0
2018-08-13T01:55:23.122Z,0
2018-08-13T01:56:23.637Z,0
2018-08-13T01:57:23.623Z,0
2018-08-13T01:58:23.343Z,0
2018-08-13T01:59:23.601Z,0
2018-08-13T02:00:23.324Z,0
2018-08-13T02:01:23.497Z,0
2018-08-13T02:02:23.302Z,0
2018-08-13T02:03:23.303Z,0
2018-08-13T02:04:23.026Z,0
2018-08-13T02:05:23.283Z,0
2018-08-13T02:06:23.002Z,0
2018-08-13T02:07:23.514Z,0
2018-08-13T02:08:22.979Z,0
2018-08-13T02:09:22.705Z,0
2018-08-13T02:10:23.225Z,0
2018-08-13T02:11:22.959Z,0
2018-08-13T02:12:23.201Z,0
2018-08-13T02:13:22.666Z,0
2018-08-13T02:14:22.925Z,0
2018-08-13T02:15:22.910Z,0
2018-08-13T02:16:23.160Z,0
2018-08-13T02:17:23.156Z,0
2018-08-13T02:18:22.613Z,0
2018-08-13T02:19:23.392Z,0
2018-08-13T02:20:23.119Z,0
2018-08-13T02:21:22.853Z,0
2018-08-13T02:22:23.370Z,0
2018-08-13T02:23:22.819Z,0
2018-08-13T02:24:22.819Z,0
2018-08-13T02:25:23.074Z,0
2018-08-13T02:26:22.798Z,0
2018-08-13T02:27:22.783Z,0
2018-08-13T02:28:23.027Z,0
2018-08-13T02:29:22.764Z,0
2018-08-13T02:30:23.298Z,0
2018-08-13T02:31:23.014Z,0
2018-08-13T02:32:23.276Z,0
2018-08-13T02:33:22.737Z,0
2018-08-13T02:34:23.241Z,0
2018-08-13T02:35:22.971Z,0
2018-08-13T02:36:22.696Z,0
2018-08-13T02:37:22.426Z,0
2018-08-13T02:38:22.976Z,0
2018-08-13T02:39:23.200Z,0
2018-08-13T02:40:22.986Z,0
2018-08-13T02:41:23.172Z,0
2018-08-13T02:42:22.109Z,0
2018-08-13T02:43:22.896Z,0
2018-08-13T02:44:22.876Z,0
2018-08-13T02:45:23.129Z,0
2018-08-13T02:46:22.591Z,0
2018-08-13T02:47:22.572Z,0
2018-08-13T02:48:22.329Z,0
2018-08-13T02:49:22.558Z,0
2018-08-13T02:50:22.814Z,0
2018-08-13T02:51:23.062Z,0
2018-08-13T02:52:22.809Z,0
2018-08-13T02:53:22.008Z,0
2018-08-13T02:54:22.772Z,0
2018-08-13T02:55:22.757Z,0
2018-08-13T02:56:23.014Z,0
2018-08-13T02:57:22.743Z,0
2018-08-13T02:58:23.444Z,0
2018-08-13T02:59:22.719Z,0
2018-08-13T03:00:22.183Z,0
2018-08-13T03:01:22.158Z,0
2018-08-13T03:02:22.429Z,0
2018-08-13T03:03:22.143Z,0
2018-08-13T03:04:22.411Z,0
2018-08-13T03:05:22.389Z,0
2018-08-13T03:06:22.639Z,0
2018-08-13T03:07:22.645Z,0
2018-08-13T03:08:22.638Z,0
2018-08-13T03:09:22.369Z,0
2018-08-13T03:10:22.343Z,0
2018-08-13T03:11:22.598Z,0
2018-08-13T03:12:22.578Z,0
2018-08-13T03:13:22.297Z,0
2018-08-13T03:14:22.307Z,0
2018-08-13T03:15:22.314Z,0
2018-08-13T03:16:22.537Z,0
2018-08-13T03:17:22.557Z,0
2018-08-13T03:18:22.512Z,0
2018-08-13T03:19:21.712Z,0
2018-08-13T03:20:21.962Z,0
2018-08-13T03:21:22.484Z,0
2018-08-13T03:22:22.476Z,0
2018-08-13T03:23:22.201Z,0
2018-08-13T03:24:22.197Z,0
2018-08-13T03:25:22.500Z,0
2018-08-13T03:26:21.906Z,0
2018-08-13T03:27:22.687Z,0
2018-08-13T03:28:22.403Z,0
2018-08-13T03:29:22.398Z,0
2018-08-13T03:30:22.458Z,0
2018-08-13T03:31:22.434Z,0
2018-08-13T03:32:22.636Z,0
2018-08-13T03:33:22.111Z,0
2018-08-13T03:34:22.090Z,0
2018-08-13T03:35:22.069Z,0
2018-08-13T03:36:21.799Z,0
2018-08-13T03:37:22.053Z,0
2018-08-13T03:38:21.781Z,0
2018-08-13T03:39:22.032Z,0
2018-08-13T03:40:22.281Z,0
2018-08-13T03:41:22.266Z,0
2018-08-13T03:42:22.000Z,0
2018-08-13T03:43:22.249Z,0
2018-08-13T03:44:21.978Z,0
2018-08-13T03:45:21.966Z,0
2018-08-13T03:46:22.010Z,0
2018-08-13T03:47:21.680Z,0
2018-08-13T03:48:21.940Z,0
2018-08-13T03:49:21.921Z,0
2018-08-13T03:50:21.924Z,0
2018-08-13T03:51:21.898Z,0
2018-08-13T03:52:22.144Z,0
2018-08-13T03:53:21.611Z,0
2018-08-13T03:54:22.426Z,0
2018-08-13T03:55:22.129Z,0
2018-08-13T03:56:21.319Z,0
2018-08-13T03:57:21.839Z,0
2018-08-13T03:58:21.836Z,0
2018-08-13T03:59:21.811Z,0
2018-08-13T04:00:21.806Z,0
2018-08-13T04:01:22.068Z,0
2018-08-13T04:02:22.048Z,0
2018-08-13T04:03:22.041Z,0
2018-08-13T04:04:21.778Z,0
2018-08-13T04:05:21.489Z,0
2018-08-13T04:06:22.012Z,0
2018-08-13T04:07:21.999Z,0
2018-08-13T04:08:22.251Z,0
2018-08-13T04:09:21.725Z,0
2018-08-13T04:10:21.449Z,0
2018-08-13T04:11:21.952Z,0
2018-08-13T04:12:21.989Z,0
2018-08-13T04:13:21.680Z,0
2018-08-13T04:14:21.666Z,0
2018-08-13T04:15:21.933Z,0
2018-08-13T04:16:21.646Z,0
2018-08-13T04:17:21.630Z,0
2018-08-13T04:18:21.353Z,5
2018-08-13T04:19:21.874Z,5
2018-08-13T04:20:22.138Z,5
2018-08-13T04:21:21.584Z,5
2018-08-13T04:22:21.587Z,5
2018-08-13T04:23:21.830Z,5
2018-08-13T04:24:21.812Z,5
2018-08-13T04:25:21.815Z,10
2018-08-13T04:26:21.286Z,10
2018-08-13T04:27:22.059Z,10
2018-08-13T04:28:22.034Z,10
2018-08-13T04:29:21.782Z,10
2018-08-13T04:30:21.491Z,15
2018-08-13T04:31:22.020Z,15
2018-08-13T04:32:21.736Z,15
2018-08-13T04:33:21.727Z,15
2018-08-13T04:34:21.455Z,10
2018-08-13T04:35:21.757Z,10
2018-08-13T04:36:21.204Z,10
2018-08-13T04:37:21.677Z,10
2018-08-13T04:38:21.952Z,10
2018-08-13T04:39:21.344Z,10
2018-08-13T04:40:21.394Z,10
2018-08-13T04:41:21.373Z,10
2018-08-13T04:42:21.635Z,10
2018-08-13T04:43:21.089Z,10
2018-08-13T04:44:21.364Z,10
2018-08-13T04:45:21.604Z,10
2018-08-13T04:46:21.322Z,10
2018-08-13T04:47:21.052Z,10
2018-08-13T04:48:21.303Z,10
2018-08-13T04:49:21.039Z,10
2018-08-13T04:50:21.557Z,10
2018-08-13T04:51:21.536Z,10
2018-08-13T04:52:22.028Z,10
2018-08-13T04:53:21.260Z,10
2018-08-13T04:54:20.718Z,15
2018-08-13T04:55:21.496Z,15
2018-08-13T04:56:21.218Z,15
2018-08-13T04:57:21.476Z,15
2018-08-13T04:58:21.209Z,15
2018-08-13T04:59:21.191Z,15
2018-08-13T05:00:21.711Z,10
2018-08-13T05:01:21.710Z,10
2018-08-13T05:02:21.170Z,15
2018-08-13T05:03:21.675Z,10
2018-08-13T05:04:21.138Z,10
2018-08-13T05:05:21.143Z,10
2018-08-13T05:06:21.388Z,10
2018-08-13T05:07:21.950Z,10
2018-08-13T05:08:21.373Z,10
2018-08-13T05:09:21.617Z,10
2018-08-13T05:10:21.084Z,15
2018-08-13T05:11:21.594Z,15
2018-08-13T05:12:21.056Z,10
2018-08-13T05:13:21.310Z,10
2018-08-13T05:14:21.046Z,10
2018-08-13T05:15:21.290Z,10
2018-08-13T05:16:21.014Z,10
2018-08-13T05:17:21.266Z,10
2018-08-13T05:18:21.266Z,15
2018-08-13T05:19:20.719Z,15
2018-08-13T05:20:21.242Z,15
2018-08-13T05:21:21.149Z,15
2018-08-13T05:22:20.954Z,15
2018-08-13T05:23:20.953Z,15
2018-08-13T05:24:20.973Z,15
2018-08-13T05:25:21.462Z,15
2018-08-13T05:26:20.906Z,20
2018-08-13T05:27:20.915Z,20
2018-08-13T05:28:20.888Z,20
2018-08-13T05:29:21.418Z,20
2018-08-13T05:30:20.656Z,20
2018-08-13T05:31:21.391Z,20
2018-08-13T05:32:21.124Z,20
2018-08-13T05:33:20.583Z,20
2018-08-13T05:34:20.565Z,20
2018-08-13T05:35:20.561Z,20
2018-08-13T05:36:20.545Z,20
2018-08-13T05:37:20.804Z,25
2018-08-13T05:38:21.401Z,25
2018-08-13T05:39:20.553Z,25
2018-08-13T05:40:20.240Z,30
2018-08-13T05:41:21.027Z,30
2018-08-13T05:42:20.757Z,35
2018-08-13T05:43:20.486Z,35
2018-08-13T05:44:20.729Z,40
2018-08-13T05:45:20.464Z,40
2018-08-13T05:46:20.705Z,40
2018-08-13T05:47:20.701Z,45
2018-08-13T05:48:20.956Z,45
2018-08-13T05:49:21.207Z,45
2018-08-13T05:50:20.667Z,45
2018-08-13T05:51:20.407Z,45
2018-08-13T05:52:20.923Z,45
2018-08-13T05:53:20.922Z,45
2018-08-13T05:54:21.157Z,45
2018-08-13T05:55:20.884Z,45
2018-08-13T05:56:21.133Z,50
2018-08-13T05:57:20.334Z,55
2018-08-13T05:58:20.616Z,60
2018-08-13T05:59:20.586Z,65
2018-08-13T06:00:20.825Z,65
2018-08-13T06:01:20.563Z,70
2018-08-13T06:02:20.547Z,70
2018-08-13T06:03:21.406Z,70
2018-08-13T06:04:20.527Z,70
2018-08-13T06:05:20.783Z,70
2018-08-13T06:06:20.506Z,70
2018-08-13T06:07:21.031Z,70
2018-08-13T06:08:20.228Z,75
2018-08-13T06:09:20.214Z,75
2018-08-13T06:10:20.204Z,75
2018-08-13T06:11:20.995Z,75
2018-08-13T06:12:20.442Z,75
2018-08-13T06:13:20.708Z,70
2018-08-13T06:14:20.426Z,65
2018-08-13T06:15:20.680Z,60
2018-08-13T06:16:20.412Z,60
2018-08-13T06:17:20.398Z,65
2018-08-13T06:18:21.472Z,65
2018-08-13T06:19:20.914Z,65
2018-08-13T06:20:20.906Z,65
2018-08-13T06:21:20.101Z,65
2018-08-13T06:22:20.710Z,65
2018-08-13T06:23:20.073Z,60
2018-08-13T06:24:21.453Z,60
2018-08-13T06:25:20.605Z,50
2018-08-13T06:26:20.840Z,50
2018-08-13T06:27:20.830Z,55
2018-08-13T06:28:20.845Z,60
2018-08-13T06:29:20.281Z,60
2018-08-13T06:30:20.189Z,55
2018-08-13T06:31:20.002Z,50
2018-08-13T06:32:20.252Z,45
2018-08-13T06:33:20.248Z,45
2018-08-13T06:34:20.498Z,45
2018-08-13T06:35:20.239Z,45
2018-08-13T06:36:20.516Z,45
2018-08-13T06:37:20.147Z,45
2018-08-13T06:38:20.459Z,45
2018-08-13T06:39:20.396Z,40
2018-08-13T06:40:20.184Z,40
2018-08-13T06:41:20.754Z,40
2018-08-13T06:42:20.421Z,40
2018-08-13T06:43:19.881Z,40
2018-08-13T06:44:20.452Z,40
2018-08-13T06:45:20.658Z,40
2018-08-13T06:46:20.381Z,40
2018-08-13T06:47:20.248Z,40
2018-08-13T06:48:20.360Z,45
2018-08-13T06:49:19.817Z,50
2018-08-13T06:50:19.812Z,50
2018-08-13T06:51:20.334Z,55
2018-08-13T06:52:20.588Z,50
2018-08-13T06:53:20.054Z,45
2018-08-13T06:54:20.028Z,40
2018-08-13T06:55:20.031Z,35
2018-08-13T06:56:19.757Z,35
2018-08-13T06:57:20.268Z,35
2018-08-13T06:58:20.046Z,35
2018-08-13T06:59:20.254Z,40
2018-08-13T07:00:19.454Z,40
2018-08-13T07:01:19.978Z,40
2018-08-13T07:02:19.697Z,35
2018-08-13T07:03:20.243Z,35
2018-08-13T07:04:20.220Z,35
2018-08-13T07:05:19.668Z,35
2018-08-13T07:06:20.071Z,35
2018-08-13T07:07:19.913Z,35
2018-08-13T07:08:19.898Z,35
2018-08-13T07:09:20.151Z,40
2018-08-13T07:10:20.131Z,45
2018-08-13T07:11:20.432Z,45
2018-08-13T07:12:20.390Z,50
2018-08-13T07:13:20.108Z,50
2018-08-13T07:14:19.847Z,55
2018-08-13T07:15:19.841Z,55
2018-08-13T07:16:19.546Z,55
2018-08-13T07:17:20.063Z,60
2018-08-13T07:18:20.061Z,60
2018-08-13T07:19:19.782Z,60
2018-08-13T07:20:19.511Z,65
2018-08-13T07:21:19.799Z,70
2018-08-13T07:22:20.076Z,75
2018-08-13T07:23:19.743Z,80
2018-08-13T07:24:19.997Z,85
2018-08-13T07:25:19.724Z,90
2018-08-13T07:26:19.447Z,100
2018-08-13T07:27:19.697Z,110
2018-08-13T07:28:20.086Z,125
2018-08-13T07:29:19.409Z,130
2018-08-13T07:30:19.933Z,140
2018-08-13T07:31:19.932Z,150
2018-08-13T07:32:19.917Z,160
2018-08-13T07:33:19.968Z,165
2018-08-13T07:34:19.366Z,165
2018-08-13T07:35:19.615Z,165
2018-08-13T07:36:19.341Z,155
2018-08-13T07:37:19.606Z,150
2018-08-13T07:38:19.609Z,155
2018-08-13T07:39:19.894Z,165
2018-08-13T07:40:19.873Z,170
2018-08-13T07:41:19.559Z,165
2018-08-13T07:42:19.551Z,165
2018-08-13T07:43:20.082Z,165
2018-08-13T07:44:19.789Z,160
2018-08-13T07:45:19.795Z,140
2018-08-13T07:46:19.818Z,130
2018-08-13T07:47:18.991Z,135
2018-08-13T07:48:19.231Z,135
2018-08-13T07:49:19.487Z,140
2018-08-13T07:50:20.052Z,155
2018-08-13T07:51:19.483Z,170
2018-08-13T07:52:19.725Z,185
2018-08-13T07:53:19.745Z,200
2018-08-13T07:54:19.743Z,210
2018-08-13T07:55:19.689Z,195
2018-08-13T07:56:19.462Z,180
2018-08-13T07:57:19.412Z,170
2018-08-13T07:58:19.141Z,165
2018-08-13T07:59:19.128Z,175
2018-08-13T08:00:19.646Z,185
2018-08-13T08:01:19.387Z,175
2018-08-13T08:02:19.373Z,175
2018-08-13T08:03:19.356Z,175
2018-08-13T08:04:19.867Z,185
2018-08-13T08:05:19.606Z,180
2018-08-13T08:06:19.326Z,155
2018-08-13T08:07:19.067Z,125
2018-08-13T08:08:19.586Z,105
2018-08-13T08:09:19.615Z,95
2018-08-13T08:10:19.296Z,100
2018-08-13T08:11:19.543Z,110
2018-08-13T08:12:19.541Z,125
2018-08-13T08:13:19.272Z,140
2018-08-13T08:14:18.729Z,140
2018-08-13T08:15:19.779Z,135
2018-08-13T08:16:19.502Z,125
2018-08-13T08:17:19.233Z,110
2018-08-13T08:18:19.493Z,100
2018-08-13T08:19:19.746Z,90
2018-08-13T08:20:19.198Z,80
2018-08-13T08:21:19.325Z,65
2018-08-13T08:22:19.189Z,55
2018-08-13T08:23:19.453Z,45
2018-08-13T08:24:19.477Z,40
2018-08-13T08:25:18.633Z,40
2018-08-13T08:26:19.412Z,50
2018-08-13T08:27:18.885Z,55
2018-08-13T08:28:19.154Z,65
2018-08-13T08:29:20.050Z,75
2018-08-13T08:30:18.851Z,80
2018-08-13T08:31:19.111Z,95
2018-08-13T08:32:19.107Z,115
2018-08-13T08:33:19.356Z,130
2018-08-13T08:34:19.351Z,155
2018-08-13T08:35:19.077Z,180
2018-08-13T08:36:19.066Z,205
2018-08-13T08:37:19.584Z,220
2018-08-13T08:38:19.040Z,220
2018-08-13T08:39:19.303Z,215
2018-08-13T08:40:19.301Z,200
2018-08-13T08:41:19.270Z,190
2018-08-13T08:42:19.272Z,195
2018-08-13T08:43:19.257Z,210
2018-08-13T08:44:19.256Z,220
2018-08-13T08:45:19.248Z,230
2018-08-13T08:46:18.968Z,225
2018-08-13T08:47:18.441Z,220
2018-08-13T08:48:18.949Z,205
2018-08-13T08:49:18.943Z,190
2018-08-13T08:50:19.461Z,185
2018-08-13T08:51:18.923Z,180
2018-08-13T08:52:18.925Z,180
2018-08-13T08:53:18.917Z,175
2018-08-13T08:54:19.160Z,165
2018-08-13T08:55:18.885Z,160
2018-08-13T08:56:19.148Z,165
2018-08-13T08:57:18.605Z,165
2018-08-13T08:58:18.864Z,175
2018-08-13T08:59:18.326Z,175
2018-08-13T09:00:18.585Z,175
2018-08-13T09:01:18.839Z,175
2018-08-13T09:02:19.097Z,175
2018-08-13T09:03:19.349Z,175
2018-08-13T09:04:18.817Z,170
2018-08-13T09:05:19.071Z,170
2018-08-13T09:06:18.542Z,170
2018-08-13T09:07:18.519Z,170
2018-08-13T09:08:18.792Z,170
2018-08-13T09:09:19.034Z,160
2018-08-13T09:10:19.321Z,155
2018-08-13T09:11:18.750Z,150
2018-08-13T09:12:18.744Z,150
2018-08-13T09:13:18.734Z,155
2018-08-13T09:14:19.500Z,145
2018-08-13T09:15:18.989Z,130
2018-08-13T09:16:18.729Z,130
2018-08-13T09:17:18.975Z,140
2018-08-13T09:18:19.242Z,170
2018-08-13T09:19:18.857Z,190
2018-08-13T09:20:18.677Z,190
2018-08-13T09:21:18.933Z,175
2018-08-13T09:22:18.921Z,155
2018-08-13T09:23:19.184Z,140
2018-08-13T09:24:18.909Z,125
2018-08-13T09:25:18.187Z,115
2018-08-13T09:26:18.941Z,105
2018-08-13T09:27:18.630Z,100
2018-08-13T09:28:18.886Z,85
2018-08-13T09:29:19.131Z,80
2018-08-13T09:30:18.346Z,75
2018-08-13T09:31:18.578Z,80
2018-08-13T09:32:18.581Z,85
2018-08-13T09:33:18.576Z,95
2018-08-13T09:34:18.292Z,105
2018-08-13T09:35:18.286Z,125
2018-08-13T09:36:18.813Z,140
2018-08-13T09:37:19.057Z,155
2018-08-13T09:38:19.049Z,170
2018-08-13T09:39:17.981Z,175
2018-08-13T09:40:18.247Z,185
2018-08-13T09:41:18.223Z,195
2018-08-13T09:42:18.755Z,200
2018-08-13T09:43:18.479Z,195
2018-08-13T09:44:19.005Z,195
2018-08-13T09:45:18.188Z,210
2018-08-13T09:46:18.704Z,215
2018-08-13T09:47:18.964Z,220
2018-08-13T09:48:18.702Z,240
2018-08-13T09:49:18.690Z,265
2018-08-13T09:50:18.417Z,280
2018-08-13T09:51:18.705Z,285
2018-08-13T09:52:18.403Z,280
2018-08-13T09:53:18.123Z,285
2018-08-13T09:54:18.911Z,290
2018-08-13T09:55:18.110Z,270
2018-08-13T09:56:18.629Z,235
2018-08-13T09:57:18.882Z,225
2018-08-13T09:58:18.090Z,250
2018-08-13T09:59:17.809Z,300
2018-08-13T10:00:19.259Z,265
2018-08-13T10:01:18.065Z,230
2018-08-13T10:02:18.838Z,245
2018-08-13T10:03:18.836Z,275
2018-08-13T10:04:18.578Z,300
2018-08-13T10:05:18.334Z,355
2018-08-13T10:06:18.541Z,305
2018-08-13T10:07:18.014Z,260
2018-08-13T10:08:18.275Z,245
2018-08-13T10:09:18.737Z,235
2018-08-13T10:10:18.252Z,370
2018-08-13T10:11:17.714Z,265
2018-08-13T10:12:17.971Z,260
2018-08-13T10:13:17.957Z,520
2018-08-13T10:14:18.476Z,440
2018-08-13T10:15:18.480Z,365
2018-08-13T10:16:18.226Z,365
2018-08-13T10:17:18.466Z,380
2018-08-13T10:18:18.722Z,400
2018-08-13T10:19:18.711Z,405
2018-08-13T10:20:17.913Z,455
2018-08-13T10:21:17.905Z,460
2018-08-13T10:22:18.158Z,485
2018-08-13T10:23:18.430Z,475
2018-08-13T10:24:18.407Z,465
2018-08-13T10:25:17.886Z,470
2018-08-13T10:26:18.403Z,485
2018-08-13T10:27:18.397Z,490
2018-08-13T10:28:17.858Z,520
2018-08-13T10:29:18.385Z,515
2018-08-13T10:30:17.581Z,760
2018-08-13T10:31:18.393Z,465
2018-08-13T10:32:18.113Z,430
2018-08-13T10:33:18.359Z,665
2018-08-13T10:34:18.356Z,365
2018-08-13T10:35:17.826Z,330
2018-08-13T10:36:18.071Z,335
2018-08-13T10:37:18.375Z,320
2018-08-13T10:38:18.069Z,325
2018-08-13T10:39:18.136Z,315
2018-08-13T10:40:18.059Z,315
2018-08-13T10:41:18.063Z,315
2018-08-13T10:42:17.783Z,310
2018-08-13T10:43:18.305Z,320
2018-08-13T10:44:18.046Z,320
2018-08-13T10:45:18.031Z,315
2018-08-13T10:46:18.285Z,460
2018-08-13T10:47:18.277Z,535
2018-08-13T10:48:17.738Z,1860
2018-08-13T10:49:17.996Z,775
2018-08-13T10:50:17.998Z,2105
2018-08-13T10:51:18.253Z,2410
2018-08-13T10:52:18.252Z,1175
2018-08-13T10:53:17.725Z,865
2018-08-13T10:54:17.714Z,975
2018-08-13T10:55:18.243Z,490
2018-08-13T10:56:18.893Z,395
2018-08-13T10:57:18.222Z,445
2018-08-13T10:58:18.489Z,395
2018-08-13T10:59:18.218Z,415
2018-08-13T11:00:17.997Z,445
2018-08-13T11:01:18.206Z,405
2018-08-13T11:02:17.965Z,415
2018-08-13T11:03:18.275Z,430
2018-08-13T11:04:17.938Z,1900
2018-08-13T11:05:17.933Z,2035
2018-08-13T11:06:18.468Z,2035
2018-08-13T11:07:17.672Z,1905
2018-08-13T11:08:18.445Z,2035
2018-08-13T11:09:17.908Z,2170
2018-08-13T11:10:18.403Z,565
2018-08-13T11:11:18.168Z,580
2018-08-13T11:12:17.913Z,1095
2018-08-13T11:13:18.207Z,815
2018-08-13T11:14:17.963Z,775
2018-08-13T11:15:18.437Z,625
2018-08-13T11:16:18.433Z,450
2018-08-13T11:17:17.895Z,405
2018-08-13T11:18:18.435Z,365
2018-08-13T11:19:18.159Z,410
2018-08-13T11:20:17.882Z,405
2018-08-13T11:21:17.883Z,450
2018-08-13T11:22:17.879Z,610
2018-08-13T11:23:17.884Z,520
2018-08-13T11:24:18.157Z,1710
2018-08-13T11:25:17.973Z,1285
2018-08-13T11:26:18.184Z,685
2018-08-13T11:27:17.870Z,1145
2018-08-13T11:28:18.130Z,430
2018-08-13T11:29:18.402Z,285
2018-08-13T11:30:18.409Z,310
2018-08-13T11:31:18.134Z,460
2018-08-13T11:32:18.059Z,395
2018-08-13T11:33:17.860Z,350
2018-08-13T11:34:18.115Z,665
2018-08-13T11:35:17.895Z,465
2018-08-13T11:36:17.316Z,420
2018-08-13T11:37:17.839Z,570
2018-08-13T11:38:17.841Z,355
2018-08-13T11:39:17.572Z,600
2018-08-13T11:40:18.101Z,395
2018-08-13T11:41:17.582Z,415
2018-08-13T11:42:18.363Z,240
2018-08-13T11:43:18.082Z,225
2018-08-13T11:44:17.815Z,250
2018-08-13T11:45:18.087Z,250
2018-08-13T11:46:17.299Z,180
2018-08-13T11:47:18.339Z,135
2018-08-13T11:48:17.807Z,150
2018-08-13T11:49:17.919Z,195
2018-08-13T11:50:18.055Z,290
2018-08-13T11:51:18.049Z,230
2018-08-13T11:52:18.309Z,160
2018-08-13T11:53:17.528Z,160
2018-08-13T11:54:18.037Z,130
2018-08-13T11:55:17.511Z,130
2018-08-13T11:56:17.831Z,145
2018-08-13T11:57:18.032Z,125
2018-08-13T11:58:17.758Z,90
2018-08-13T11:59:17.483Z,90
2018-08-13T12:00:18.017Z,110
2018-08-13T12:01:18.158Z,115
2018-08-13T12:02:17.861Z,110
2018-08-13T12:03:17.464Z,105
2018-08-13T12:04:17.720Z,105
2018-08-13T12:05:17.972Z,100
2018-08-13T12:06:18.246Z,100
2018-08-13T12:07:18.223Z,110
2018-08-13T12:08:18.058Z,125
2018-08-13T12:09:17.685Z,145
2018-08-13T12:10:17.937Z,170
2018-08-13T12:11:17.938Z,195
2018-08-13T12:12:17.403Z,220
2018-08-13T12:13:17.931Z,255
2018-08-13T12:14:17.795Z,285
2018-08-13T12:15:17.647Z,410
2018-08-13T12:16:17.639Z,450
2018-08-13T12:17:17.656Z,430
2018-08-13T12:18:17.632Z,400
2018-08-13T12:19:17.623Z,465
2018-08-13T12:20:17.349Z,625
2018-08-13T12:21:17.875Z,465
2018-08-13T12:22:18.121Z,390
2018-08-13T12:23:18.123Z,360
2018-08-13T12:24:17.601Z,360
2018-08-13T12:25:17.860Z,350
2018-08-13T12:26:17.321Z,355
2018-08-13T12:27:17.842Z,365
2018-08-13T12:28:18.104Z,380
2018-08-13T12:29:17.557Z,390
2018-08-13T12:30:17.825Z,380
2018-08-13T12:31:18.079Z,405
2018-08-13T12:32:17.282Z,415
2018-08-13T12:33:17.546Z,445
2018-08-13T12:34:17.799Z,520
2018-08-13T12:35:17.266Z,545
2018-08-13T12:36:17.254Z,530
2018-08-13T12:37:17.780Z,540
2018-08-13T12:38:16.979Z,490
2018-08-13T12:39:17.763Z,500
2018-08-13T12:40:18.224Z,415
2018-08-13T12:41:17.332Z,380
2018-08-13T12:42:17.512Z,335
2018-08-13T12:43:17.757Z,305
2018-08-13T12:44:17.479Z,285
2018-08-13T12:45:17.739Z,270
2018-08-13T12:46:17.464Z,290
2018-08-13T12:47:17.240Z,325
2018-08-13T12:48:17.477Z,365
2018-08-13T12:49:17.196Z,445
2018-08-13T12:50:17.726Z,540
2018-08-13T12:51:17.605Z,655
2018-08-13T12:52:17.970Z,1685
2018-08-13T12:53:17.689Z,890
2018-08-13T12:54:17.429Z,1320
2018-08-13T12:55:17.416Z,720
2018-08-13T12:56:17.681Z,690
2018-08-13T12:57:17.646Z,670
2018-08-13T12:58:17.413Z,485
2018-08-13T12:59:17.420Z,485
2018-08-13T13:00:17.179Z,530
2018-08-13T13:01:17.646Z,455
2018-08-13T13:02:17.641Z,330
2018-08-13T13:03:17.642Z,290
2018-08-13T13:04:17.650Z,260
2018-08-13T13:05:17.370Z,230
2018-08-13T13:06:17.628Z,210
2018-08-13T13:07:17.366Z,200
2018-08-13T13:08:17.365Z,190
2018-08-13T13:09:17.883Z,180
2018-08-13T13:10:17.353Z,165
2018-08-13T13:11:17.616Z,155
2018-08-13T13:12:17.880Z,145
2018-08-13T13:13:17.611Z,130
2018-08-13T13:14:17.594Z,120
2018-08-13T13:15:17.588Z,105
2018-08-13T13:16:17.311Z,100
2018-08-13T13:17:17.579Z,90
2018-08-13T13:18:17.569Z,80
2018-08-13T13:19:17.840Z,75
2018-08-13T13:20:17.555Z,65
2018-08-13T13:21:17.587Z,60
2018-08-13T13:22:17.022Z,60
2018-08-13T13:23:17.273Z,60
2018-08-13T13:24:17.280Z,55
2018-08-13T13:25:17.831Z,50
2018-08-13T13:26:17.792Z,50
2018-08-13T13:27:17.257Z,45
2018-08-13T13:28:17.239Z,40
2018-08-13T13:29:17.239Z,40
2018-08-13T13:30:17.222Z,35
2018-08-13T13:31:16.964Z,35
2018-08-13T13:32:17.221Z,35
2018-08-13T13:33:17.467Z,35
2018-08-13T13:34:17.199Z,35
2018-08-13T13:35:17.459Z,35
2018-08-13T13:36:17.186Z,35
2018-08-13T13:37:16.911Z,40
2018-08-13T13:38:16.644Z,40
2018-08-13T13:39:17.415Z,50
2018-08-13T13:40:17.503Z,60
2018-08-13T13:41:17.408Z,60
2018-08-13T13:42:17.665Z,70
2018-08-13T13:43:16.597Z,80
2018-08-13T13:44:17.384Z,80
2018-08-13T13:45:17.119Z,55
2018-08-13T13:46:17.297Z,55
2018-08-13T13:47:17.100Z,90
2018-08-13T13:48:17.102Z,130
2018-08-13T13:49:17.351Z,140
2018-08-13T13:50:17.075Z,100
2018-08-13T13:51:17.600Z,70
2018-08-13T13:52:17.055Z,65
2018-08-13T13:53:17.578Z,90
2018-08-13T13:54:16.777Z,160
2018-08-13T13:55:17.297Z,445
2018-08-13T13:56:17.024Z,360
2018-08-13T13:57:17.117Z,220
2018-08-13T13:58:16.751Z,310
2018-08-13T13:59:17.262Z,255
2018-08-13T14:00:17.261Z,260
2018-08-13T14:01:17.261Z,265
2018-08-13T14:02:16.988Z,225
2018-08-13T14:03:16.973Z,245
2018-08-13T14:04:16.697Z,240
2018-08-13T14:05:16.683Z,260
2018-08-13T14:06:17.349Z,285
2018-08-13T14:07:17.199Z,285
2018-08-13T14:08:16.933Z,435
2018-08-13T14:09:16.922Z,160
2018-08-13T14:10:16.931Z,160
2018-08-13T14:11:17.177Z,155